Terminal Aerodrome Forecast
Issued by NWS Sioux Falls, SD

Home | Current Version | Previous Version | Graphics & Text | Print | Product List | Glossary Off
Versions: 1 2 3 4 5 6 7 8 9 10 11 12 13

960
FTUS43 KFSD 240540
TAFFSD
TAF
KFSD 240540Z 2406/2506 33009KT P6SM FEW060 SCT150
     FM241400 31008KT P6SM BKN150
     FM250200 27005KT P6SM FEW150=

USA.gov is the U.S. government's official web portal to all federal, state and local government web resources and services.